Time;durP1;ratioP1;P1;durP2;ratioP2;P2;SDS_P1;SDS_P2;PMS_P1;PMS_P2;Temp;Humidity;BMP_temperature;BMP_pressure;BME280_temperature;BME280_humidity;BME280_pressure;Samples;Min_cycle;Max_cycle;Signal;HPM_P1;HPM_P2
2022/04/07 00:01:29;;;;;;;3.47;1.75;;;;;;;;;;5032596;28;20057;-62
2022/04/07 00:03:54;;;;;;;4.22;1.77;;;;;;;;;;5032796;28;20044;-62
2022/04/07 00:06:20;;;;;;;3.45;2.00;;;;;;;;;;5032830;28;20312;-62
2022/04/07 00:08:46;;;;;;;4.68;1.92;;;;;;;;;;5032656;28;20504;-61
2022/04/07 00:11:11;;;;;;;2.97;1.88;;;;;;;;;;5032626;28;20370;-62
2022/04/07 00:13:37;;;;;;;4.60;2.08;;;;;;;;;;5032552;28;20017;-62
2022/04/07 00:16:03;;;;;;;4.07;1.67;;;;;;;;;;5032393;28;20068;-62
2022/04/07 00:18:29;;;;;;;4.18;1.80;;;;;;;;;;5032279;28;20057;-62
2022/04/07 00:20:55;;;;;;;3.28;1.70;;;;;;;;;;5032089;28;20037;-61
2022/04/07 00:23:21;;;;;;;3.05;1.73;;;;;;;;;;5032570;28;20108;-62
2022/04/07 00:25:48;;;;;;;2.83;1.70;;;;;;;;;;5032340;28;20030;-61
2022/04/07 00:28:14;;;;;;;3.20;1.70;;;;;;;;;;5032410;28;20036;-62
2022/04/07 00:30:40;;;;;;;8.00;2.00;;;;;;;;;;5032194;28;20074;-62
2022/04/07 00:33:09;;;;;;;3.25;1.90;;;;;;;;;;5032164;28;20414;-61
2022/04/07 00:35:36;;;;;;;2.72;1.60;;;;;;;;;;5032415;28;20029;-60
2022/04/07 00:38:03;;;;;;;5.38;1.95;;;;;;;;;;5032291;28;20378;-63
2022/04/07 00:40:29;;;;;;;5.28;2.00;;;;;;;;;;5032195;28;20413;-63
2022/04/07 00:42:55;;;;;;;4.93;1.85;;;;;;;;;;5032099;28;20022;-62
2022/04/07 00:45:23;;;;;;;5.70;2.40;;;;;;;;;;5031766;28;20031;-62
2022/04/07 00:47:50;;;;;;;5.03;2.45;;;;;;;;;;5032074;28;20505;-63
2022/04/07 00:50:18;;;;;;;3.85;1.90;;;;;;;;;;5032116;28;20406;-62
2022/04/07 00:52:50;;;;;;;2.95;1.85;;;;;;;;;;5032222;28;20022;-62
2022/04/07 00:55:15;;;;;;;4.03;2.15;;;;;;;;;;5032244;28;20022;-63
2022/04/07 00:57:43;;;;;;;7.22;1.98;;;;;;;;;;5032601;28;20017;-63
2022/04/07 01:00:10;;;;;;;2.80;1.95;;;;;;;;;;5032231;28;20021;-62
2022/04/07 01:02:36;;;;;;;3.25;1.90;;;;;;;;;;5032642;28;20422;-63
2022/04/07 01:05:06;;;;;;;5.10;2.08;;;;;;;;;;5032140;28;20041;-63
2022/04/07 01:07:37;;;;;;;10.98;3.13;;;;;;;;;;5032474;28;20029;-60
2022/04/07 01:10:03;;;;;;;;;;;;;;;;;;5032789;28;20025;-62
2022/04/07 01:12:29;;;;;;;4.78;2.50;;;;;;;;;;5032017;28;19916;-61
2022/04/07 01:14:56;;;;;;;5.20;2.00;;;;;;;;;;5031235;28;20489;-61
2022/04/07 01:17:22;;;;;;;3.05;1.98;;;;;;;;;;5031741;28;20026;-62
2022/04/07 01:19:47;;;;;;;4.75;2.00;;;;;;;;;;5031318;28;20531;-62
2022/04/07 01:22:14;;;;;;;4.47;2.58;;;;;;;;;;5031752;28;20048;-62
2022/04/07 01:24:40;;;;;;;5.22;2.38;;;;;;;;;;5032189;28;20037;-62
2022/04/07 01:27:05;;;;;;;5.57;2.60;;;;;;;;;;5032220;28;20021;-62
2022/04/07 01:29:31;;;;;;;6.35;2.22;;;;;;;;;;5031948;28;20086;-63
2022/04/07 01:31:59;;;;;;;4.50;2.40;;;;;;;;;;5032183;28;20025;-62
2022/04/07 01:34:25;;;;;;;6.10;2.42;;;;;;;;;;5032192;28;20025;-61
2022/04/07 01:36:53;;;;;;;4.57;2.53;;;;;;;;;;5032046;28;20025;-62
2022/04/07 01:39:25;;;;;;;4.05;2.22;;;;;;;;;;5032088;28;20026;-62
2022/04/07 01:41:51;;;;;;;5.43;2.40;;;;;;;;;;5032128;28;20087;-62
2022/04/07 01:44:18;;;;;;;6.32;2.38;;;;;;;;;;5031231;28;20026;-60
2022/04/07 01:46:44;;;;;;;5.30;2.47;;;;;;;;;;5031488;28;20022;-60
2022/04/07 01:49:10;;;;;;;6.55;2.40;;;;;;;;;;5031317;28;20056;-60
2022/04/07 01:51:37;;;;;;;6.32;2.72;;;;;;;;;;5031344;28;20029;-60
2022/04/07 01:54:03;;;;;;;4.97;2.17;;;;;;;;;;5032000;28;20033;-61
2022/04/07 01:56:30;;;;;;;4.55;2.28;;;;;;;;;;5031968;28;20031;-62
2022/04/07 01:58:56;;;;;;;4.75;2.75;;;;;;;;;;5031620;28;20522;-60
2022/04/07 02:01:21;;;;;;;3.95;2.40;;;;;;;;;;5032018;28;20025;-62
2022/04/07 02:03:47;;;;;;;6.47;2.75;;;;;;;;;;5031871;28;20532;-60
2022/04/07 02:06:17;;;;;;;3.42;2.20;;;;;;;;;;5031864;28;20081;-62
2022/04/07 02:08:44;;;;;;;4.70;2.50;;;;;;;;;;5032008;28;20080;-62
2022/04/07 02:11:13;;;;;;;4.60;2.33;;;;;;;;;;5031688;28;20057;-61
2022/04/07 02:13:39;;;;;;;6.93;2.78;;;;;;;;;;5031867;28;20498;-62
2022/04/07 02:16:06;;;;;;;4.88;2.38;;;;;;;;;;5031261;28;20034;-63
2022/04/07 02:18:32;;;;;;;6.07;2.47;;;;;;;;;;5033573;28;20067;-61
2022/04/07 02:20:58;;;;;;;7.35;2.72;;;;;;;;;;5034432;28;20271;-61
2022/04/07 02:23:23;;;;;;;4.90;2.22;;;;;;;;;;5034784;28;20034;-61
2022/04/07 02:25:49;;;;;;;4.65;2.50;;;;;;;;;;5034928;28;20044;-62
2022/04/07 02:28:14;;;;;;;5.05;2.35;;;;;;;;;;5035343;28;20029;-61
2022/04/07 02:30:40;;;;;;;5.80;2.38;;;;;;;;;;5035292;28;20036;-61
2022/04/07 02:33:05;;;;;;;3.42;2.25;;;;;;;;;;5033766;28;20026;-62
2022/04/07 02:35:31;;;;;;;5.97;2.63;;;;;;;;;;5035161;28;20037;-60
2022/04/07 02:38:00;;;;;;;7.70;2.38;;;;;;;;;;5035118;28;20411;-62
2022/04/07 02:40:25;;;;;;;3.97;2.17;;;;;;;;;;5033686;28;20045;-62
2022/04/07 02:42:51;;;;;;;5.72;2.60;;;;;;;;;;5034875;28;20083;-62
2022/04/07 02:45:17;;;;;;;4.90;2.63;;;;;;;;;;5034253;28;20037;-61
2022/04/07 02:47:42;;;;;;;5.80;2.50;;;;;;;;;;5034188;28;20026;-61
2022/04/07 02:50:08;;;;;;;3.75;2.20;;;;;;;;;;5034416;28;20040;-60
2022/04/07 02:52:34;;;;;;;4.32;2.67;;;;;;;;;;5034469;28;20026;-62
2022/04/07 02:54:59;;;;;;;6.50;2.55;;;;;;;;;;5034468;28;20079;-62
2022/04/07 02:57:29;;;;;;;5.75;2.70;;;;;;;;;;5034781;28;20459;-61
2022/04/07 02:59:55;;;;;;;6.00;2.47;;;;;;;;;;5034701;28;20033;-62
2022/04/07 03:02:20;;;;;;;3.78;2.35;;;;;;;;;;5034582;28;20032;-60
2022/04/07 03:04:46;;;;;;;5.93;2.55;;;;;;;;;;5034500;28;20041;-60
2022/04/07 03:07:11;;;;;;;6.13;2.75;;;;;;;;;;5034749;28;20025;-61
2022/04/07 03:09:37;;;;;;;4.72;2.30;;;;;;;;;;5034198;28;20018;-61
2022/04/07 03:12:02;;;;;;;5.72;3.13;;;;;;;;;;5034380;28;20024;-60
2022/04/07 03:14:28;;;;;;;6.93;2.33;;;;;;;;;;5034539;28;20075;-61
2022/04/07 03:16:54;;;;;;;4.82;2.58;;;;;;;;;;5033540;28;20101;-64
2022/04/07 03:19:20;;;;;;;5.00;2.85;;;;;;;;;;5033439;28;20065;-62
2022/04/07 03:21:45;;;;;;;5.05;2.53;;;;;;;;;;5033455;28;20025;-60
2022/04/07 03:24:11;;;;;;;4.93;2.17;;;;;;;;;;5033293;28;20033;-61
2022/04/07 03:26:38;;;;;;;5.53;2.47;;;;;;;;;;5034132;28;20026;-59
2022/04/07 03:29:05;;;;;;;6.88;2.90;;;;;;;;;;5033878;28;20522;-60
2022/04/07 03:31:31;;;;;;;10.27;2.55;;;;;;;;;;5034078;28;20033;-61
2022/04/07 03:33:56;;;;;;;6.75;3.00;;;;;;;;;;5034161;28;20033;-60
2022/04/07 03:36:21;;;;;;;6.63;2.92;;;;;;;;;;5034050;28;20025;-61
2022/04/07 03:38:48;;;;;;;8.57;3.13;;;;;;;;;;5033645;28;20026;-61
2022/04/07 03:41:15;;;;;;;6.63;2.90;;;;;;;;;;5033780;28;20116;-62
2022/04/07 03:43:42;;;;;;;7.30;3.03;;;;;;;;;;5033604;28;20030;-61
2022/04/07 03:46:08;;;;;;;5.15;2.60;;;;;;;;;;5033215;28;20029;-62
2022/04/07 03:48:34;;;;;;;5.35;2.47;;;;;;;;;;5033191;28;20025;-61
2022/04/07 03:51:00;;;;;;;4.90;2.58;;;;;;;;;;5033039;28;20034;-62
2022/04/07 03:53:25;;;;;;;7.97;3.30;;;;;;;;;;5033093;28;20072;-60
2022/04/07 03:55:51;;;;;;;6.95;2.90;;;;;;;;;;5033677;28;20040;-61
2022/04/07 03:58:16;;;;;;;6.93;3.20;;;;;;;;;;5033442;28;20060;-61
2022/04/07 04:00:42;;;;;;;6.68;2.83;;;;;;;;;;5033469;28;20112;-61
2022/04/07 04:03:07;;;;;;;5.45;2.80;;;;;;;;;;5033469;28;20523;-61
2022/04/07 04:05:33;;;;;;;4.93;2.70;;;;;;;;;;5033442;28;20414;-60
2022/04/07 04:07:59;;;;;;;5.50;2.70;;;;;;;;;;5033145;28;20029;-62
2022/04/07 04:10:25;;;;;;;7.55;3.70;;;;;;;;;;5033336;28;20025;-62
2022/04/07 04:12:51;;;;;;;5.93;3.70;;;;;;;;;;5033087;28;20026;-61
2022/04/07 04:15:16;;;;;;;9.23;3.72;;;;;;;;;;5032708;28;20029;-60
2022/04/07 04:17:42;;;;;;;10.65;3.97;;;;;;;;;;5032522;28;20017;-61
2022/04/07 04:20:08;;;;;;;5.90;3.30;;;;;;;;;;5032063;28;20180;-61
2022/04/07 04:22:34;;;;;;;7.43;3.50;;;;;;;;;;5032291;28;20037;-61
2022/04/07 04:25:00;;;;;;;7.93;3.72;;;;;;;;;;5032742;28;20084;-62
2022/04/07 04:27:26;;;;;;;7.22;3.67;;;;;;;;;;5033166;28;20049;-60
2022/04/07 04:29:52;;;;;;;8.65;3.97;;;;;;;;;;5032961;28;20153;-60
2022/04/07 04:32:17;;;;;;;5.85;4.00;;;;;;;;;;5032832;28;20079;-61
2022/04/07 04:34:43;;;;;;;9.75;3.80;;;;;;;;;;5032895;28;20017;-62
2022/04/07 04:37:08;;;;;;;6.25;3.60;;;;;;;;;;5032435;28;20033;-61
2022/04/07 04:39:34;;;;;;;5.03;3.25;;;;;;;;;;5032696;28;20112;-61
2022/04/07 04:41:59;;;;;;;8.38;3.67;;;;;;;;;;5032516;28;20029;-61
2022/04/07 04:44:25;;;;;;;7.22;3.65;;;;;;;;;;5032591;28;20033;-61
2022/04/07 04:46:50;;;;;;;6.82;3.45;;;;;;;;;;5030725;28;20057;-61
2022/04/07 04:49:16;;;;;;;6.63;3.83;;;;;;;;;;5032015;28;20032;-61
2022/04/07 04:51:41;;;;;;;6.18;3.67;;;;;;;;;;5031758;28;20033;-63
2022/04/07 04:54:07;;;;;;;8.43;3.83;;;;;;;;;;5032303;28;20478;-63
2022/04/07 04:56:32;;;;;;;10.65;3.70;;;;;;;;;;5032476;28;20033;-62
2022/04/07 04:58:58;;;;;;;10.40;3.53;;;;;;;;;;5032477;28;20115;-62
2022/04/07 05:01:24;;;;;;;7.63;3.85;;;;;;;;;;5032307;28;20025;-62
2022/04/07 05:03:50;;;;;;;7.10;3.33;;;;;;;;;;5032387;28;20394;-62
2022/04/07 05:06:15;;;;;;;9.50;4.30;;;;;;;;;;5032306;28;20022;-61
2022/04/07 05:08:41;;;;;;;8.95;4.30;;;;;;;;;;5032281;28;20475;-62
2022/04/07 05:11:07;;;;;;;7.72;4.30;;;;;;;;;;5032120;28;20103;-63
2022/04/07 05:13:33;;;;;;;6.57;4.20;;;;;;;;;;5032158;28;20033;-62
2022/04/07 05:15:58;;;;;;;9.15;4.32;;;;;;;;;;5031703;28;20025;-62
2022/04/07 05:18:24;;;;;;;8.52;4.47;;;;;;;;;;5031540;28;20026;-62
2022/04/07 05:20:49;;;;;;;9.20;4.95;;;;;;;;;;5030942;28;20112;-63
2022/04/07 05:23:15;;;;;;;8.15;4.40;;;;;;;;;;5031629;28;20515;-63
2022/04/07 05:25:40;;;;;;;10.35;4.30;;;;;;;;;;5031778;28;20033;-63
2022/04/07 05:28:06;;;;;;;9.82;4.28;;;;;;;;;;5032011;28;20036;-63
2022/04/07 05:30:32;;;;;;;10.00;4.38;;;;;;;;;;5032124;28;20026;-63
2022/04/07 05:32:57;;;;;;;7.93;4.05;;;;;;;;;;5032077;28;20112;-62
2022/04/07 05:35:26;;;;;;;10.80;5.07;;;;;;;;;;5031986;28;20033;-62
2022/04/07 05:37:57;;;;;;;8.55;4.18;;;;;;;;;;5032000;28;20467;-63
2022/04/07 05:40:23;;;;;;;10.15;4.20;;;;;;;;;;5031886;28;20103;-63
2022/04/07 05:42:49;;;;;;;10.25;4.68;;;;;;;;;;5031836;28;20049;-63
2022/04/07 05:45:14;;;;;;;12.82;4.28;;;;;;;;;;5032188;28;20037;-63
2022/04/07 05:47:40;;;;;;;12.93;5.32;;;;;;;;;;5031922;28;20026;-62
2022/04/07 05:50:07;;;;;;;7.88;3.55;;;;;;;;;;5031768;28;20124;-62
2022/04/07 05:52:32;;;;;;;12.93;4.50;;;;;;;;;;5033141;28;20040;-63
2022/04/07 05:54:58;;;;;;;10.57;4.38;;;;;;;;;;5035761;28;20029;-63
2022/04/07 05:57:26;;;;;;;8.23;4.88;;;;;;;;;;5035846;28;20118;-63
2022/04/07 05:59:52;;;;;;;10.77;4.15;;;;;;;;;;5035499;28;20086;-62
2022/04/07 06:02:17;;;;;;;8.80;4.22;;;;;;;;;;5035520;28;20017;-63
2022/04/07 06:04:43;;;;;;;10.07;4.90;;;;;;;;;;5035497;28;20087;-63
2022/04/07 06:07:08;;;;;;;8.35;3.60;;;;;;;;;;5035580;28;20029;-63
2022/04/07 06:09:35;;;;;;;9.13;4.30;;;;;;;;;;5035610;28;20044;-63
2022/04/07 06:12:00;;;;;;;9.00;4.28;;;;;;;;;;5035225;28;20087;-63
2022/04/07 06:14:26;;;;;;;10.15;4.60;;;;;;;;;;5034942;28;20041;-62
2022/04/07 06:16:52;;;;;;;9.88;3.65;;;;;;;;;;5034581;28;20030;-62
2022/04/07 06:19:17;;;;;;;9.57;4.00;;;;;;;;;;5034374;28;20073;-63
2022/04/07 06:21:43;;;;;;;7.28;4.03;;;;;;;;;;5034819;28;20025;-62
2022/04/07 06:24:09;;;;;;;9.95;3.95;;;;;;;;;;5035325;28;20112;-63
2022/04/07 06:26:34;;;;;;;8.15;4.05;;;;;;;;;;5035209;28;20045;-61
2022/04/07 06:29:00;;;;;;;8.40;3.70;;;;;;;;;;5035141;28;20108;-63
2022/04/07 06:31:26;;;;;;;10.48;4.80;;;;;;;;;;5035150;28;20026;-62
2022/04/07 06:33:52;;;;;;;6.97;3.67;;;;;;;;;;5034762;28;20080;-63
2022/04/07 06:36:17;;;;;;;7.45;3.80;;;;;;;;;;5035138;28;20467;-63
2022/04/07 06:38:42;;;;;;;6.63;3.67;;;;;;;;;;5035164;28;20104;-63
2022/04/07 06:41:08;;;;;;;5.38;3.72;;;;;;;;;;5035005;28;20033;-63
2022/04/07 06:43:34;;;;;;;6.00;3.78;;;;;;;;;;5035060;28;20056;-64
2022/04/07 06:45:59;;;;;;;6.28;3.58;;;;;;;;;;5034623;28;20068;-62
2022/04/07 06:48:24;;;;;;;6.80;3.42;;;;;;;;;;5034079;28;20025;-64
2022/04/07 06:50:50;;;;;;;6.15;3.47;;;;;;;;;;5034257;28;20522;-62
2022/04/07 06:53:16;;;;;;;4.82;3.17;;;;;;;;;;5034217;28;20033;-63
2022/04/07 06:55:43;;;;;;;5.03;3.05;;;;;;;;;;5034706;28;20107;-63
2022/04/07 06:58:10;;;;;;;5.95;3.58;;;;;;;;;;5034802;28;20034;-63
2022/04/07 07:00:43;;;;;;;6.75;3.70;;;;;;;;;;5034524;28;20434;-62
2022/04/07 07:03:09;;;;;;;5.78;3.40;;;;;;;;;;5033763;28;20083;-62
2022/04/07 07:05:36;;;;;;;7.95;3.33;;;;;;;;;;5034644;28;20422;-63
2022/04/07 07:08:14;;;;;;;7.28;3.70;;;;;;;;;;5034421;28;20045;-64
2022/04/07 07:10:41;;;;;;;8.40;4.15;;;;;;;;;;5034662;28;20084;-62
2022/04/07 07:13:06;;;;;;;6.75;3.75;;;;;;;;;;5033930;28;20033;-62
2022/04/07 07:15:32;;;;;;;5.10;3.53;;;;;;;;;;5033638;28;20424;-62
2022/04/07 07:17:57;;;;;;;6.90;3.60;;;;;;;;;;5033636;28;20026;-63
2022/04/07 07:20:23;;;;;;;6.40;3.80;;;;;;;;;;5033219;28;20395;-63
2022/04/07 07:22:49;;;;;;;7.88;4.00;;;;;;;;;;5033979;28;20032;-62
2022/04/07 07:25:15;;;;;;;7.70;4.03;;;;;;;;;;5034117;28;20032;-63
2022/04/07 07:27:45;;;;;;;6.13;3.67;;;;;;;;;;5034120;28;20033;-62
2022/04/07 07:30:12;;;;;;;6.35;3.47;;;;;;;;;;5033899;28;20032;-63
2022/04/07 07:32:42;;;;;;;7.85;3.30;;;;;;;;;;5034022;28;20036;-64
2022/04/07 07:35:09;;;;;;;6.07;3.33;;;;;;;;;;5030177;28;20106;-63
2022/04/07 07:37:36;;;;;;;6.30;3.00;;;;;;;;;;5031101;28;20105;-64
2022/04/07 07:40:08;;;;;;;8.25;3.10;;;;;;;;;;5031074;28;20021;-64
2022/04/07 07:42:36;;;;;;;7.78;3.08;;;;;;;;;;5033784;28;20038;-64
2022/04/07 07:45:02;;;;;;;4.07;2.80;;;;;;;;;;5030565;28;20025;-64
2022/04/07 07:47:27;;;;;;;11.68;3.30;;;;;;;;;;5033407;28;20037;-63
2022/04/07 07:49:53;;;;;;;11.10;4.18;;;;;;;;;;5033556;28;20399;-64
2022/04/07 07:52:18;;;;;;;5.15;2.88;;;;;;;;;;5033303;28;20075;-64
2022/04/07 07:54:44;;;;;;;4.47;3.22;;;;;;;;;;5024362;28;20017;-64
2022/04/07 07:57:09;;;;;;;4.57;2.63;;;;;;;;;;5023602;28;20059;-64
2022/04/07 07:59:35;;;;;;;4.90;2.88;;;;;;;;;;5022406;28;20023;-63
2022/04/07 08:02:00;;;;;;;5.18;3.22;;;;;;;;;;5024420;28;20426;-62
2022/04/07 08:04:26;;;;;;;4.55;2.40;;;;;;;;;;5024093;28;20033;-63
2022/04/07 08:06:51;;;;;;;4.32;2.65;;;;;;;;;;5023703;28;20018;-64
2022/04/07 08:09:17;;;;;;;6.40;2.20;;;;;;;;;;5021926;28;20041;-64
2022/04/07 08:11:42;;;;;;;4.55;2.50;;;;;;;;;;5033008;28;20021;-63
2022/04/07 08:14:08;;;;;;;7.47;3.05;;;;;;;;;;5032927;28;20386;-64
2022/04/07 08:16:35;;;;;;;6.95;3.05;;;;;;;;;;5032454;28;20017;-62
2022/04/07 08:19:00;;;;;;;4.78;2.72;;;;;;;;;;5032758;28;20041;-62
2022/04/07 08:21:26;;;;;;;6.10;3.03;;;;;;;;;;5028501;28;20082;-61
2022/04/07 08:23:52;;;;;;;5.10;2.70;;;;;;;;;;5032579;28;20021;-61
2022/04/07 08:26:17;;;;;;;5.18;2.40;;;;;;;;;;5030215;28;20021;-61
2022/04/07 08:28:43;;;;;;;3.88;2.28;;;;;;;;;;5032752;28;20419;-60
2022/04/07 08:31:08;;;;;;;5.72;2.58;;;;;;;;;;5022069;28;20029;-61
2022/04/07 08:33:34;;;;;;;4.20;2.53;;;;;;;;;;5023767;28;20057;-61
2022/04/07 08:36:00;;;;;;;5.07;2.28;;;;;;;;;;5022169;28;20030;-61
2022/04/07 08:38:25;;;;;;;5.35;2.17;;;;;;;;;;5022854;28;20017;-62
2022/04/07 08:40:51;;;;;;;4.20;2.40;;;;;;;;;;5023532;28;20018;-61
2022/04/07 08:43:18;;;;;;;4.75;2.10;;;;;;;;;;5021505;28;20022;-62
2022/04/07 08:45:44;;;;;;;6.38;2.50;;;;;;;;;;5023067;28;20041;-61
2022/04/07 08:48:12;;;;;;;5.90;2.28;;;;;;;;;;5021921;28;20479;-61
2022/04/07 08:50:42;;;;;;;6.80;2.38;;;;;;;;;;5022544;28;20035;-64
2022/04/07 08:53:08;;;;;;;;;;;;;;;;;;5024752;28;20434;-63
2022/04/07 08:55:34;;;;;;;3.47;2.03;;;;;;;;;;5022797;28;19920;-64
2022/04/07 08:58:02;;;;;;;3.50;1.67;;;;;;;;;;5022953;28;20026;-63
2022/04/07 09:00:28;;;;;;;4.43;1.85;;;;;;;;;;5023442;28;20028;-64
2022/04/07 09:02:54;;;;;;;4.40;1.85;;;;;;;;;;5022259;28;20018;-63
2022/04/07 09:05:23;;;;;;;4.10;1.98;;;;;;;;;;5021751;28;20029;-61
2022/04/07 09:07:54;;;;;;;6.15;2.10;;;;;;;;;;5023354;28;20104;-61
2022/04/07 09:10:21;;;;;;;4.22;2.17;;;;;;;;;;5023044;28;20164;-61
2022/04/07 09:12:47;;;;;;;2.55;1.80;;;;;;;;;;5021103;28;20084;-61
2022/04/07 09:15:13;;;;;;;6.47;2.25;;;;;;;;;;5022680;28;20029;-61
2022/04/07 09:18:00;;;;;;;3.20;2.20;;;;;;;;;;5025296;28;20053;-61
2022/04/07 09:20:26;;;;;;;7.75;2.03;;;;;;;;;;5026037;28;20107;-61
2022/04/07 09:22:58;;;;;;;3.72;2.10;;;;;;;;;;5023868;28;20037;-63
2022/04/07 09:25:27;;;;;;;4.57;2.20;;;;;;;;;;5020935;28;20037;-61
2022/04/07 09:27:57;;;;;;;3.72;2.05;;;;;;;;;;5028012;28;20029;-62
2022/04/07 09:30:23;;;;;;;6.90;2.58;;;;;;;;;;5029686;28;20061;-62
2022/04/07 09:32:49;;;;;;;4.38;2.17;;;;;;;;;;5027796;28;20053;-62
2022/04/07 09:35:15;;;;;;;4.85;2.13;;;;;;;;;;5028779;28;20033;-61
2022/04/07 09:37:42;;;;;;;4.45;1.90;;;;;;;;;;5029255;28;20379;-61
2022/04/07 09:40:16;;;;;;;3.70;1.80;;;;;;;;;;5030292;28;20562;-61
2022/04/07 09:42:42;;;;;;;6.65;2.22;;;;;;;;;;5026914;28;20029;-61
2022/04/07 09:45:11;;;;;;;2.83;1.90;;;;;;;;;;5029410;28;20079;-61
2022/04/07 09:47:40;;;;;;;5.85;1.80;;;;;;;;;;5030991;28;20017;-61
2022/04/07 09:50:07;;;;;;;4.05;1.70;;;;;;;;;;5038855;28;20120;-61
2022/04/07 09:52:32;;;;;;;4.80;1.70;;;;;;;;;;5039134;28;20025;-61
2022/04/07 09:55:06;;;;;;;7.90;1.92;;;;;;;;;;5039077;28;20029;-62
2022/04/07 09:57:33;;;;;;;2.83;1.40;;;;;;;;;;5039089;28;20034;-62
2022/04/07 10:00:02;;;;;;;6.03;1.67;;;;;;;;;;5038885;28;20033;-61
2022/04/07 10:02:29;;;;;;;11.80;2.30;;;;;;;;;;5034250;28;20036;-61
2022/04/07 10:04:56;;;;;;;3.33;1.92;;;;;;;;;;5038328;28;20589;-61
2022/04/07 10:07:24;;;;;;;4.45;1.58;;;;;;;;;;5038702;28;20021;-60
2022/04/07 10:09:51;;;;;;;4.68;1.52;;;;;;;;;;5038415;28;20570;-61
2022/04/07 10:12:18;;;;;;;10.93;1.98;;;;;;;;;;5038667;28;20490;-61
2022/04/07 10:14:44;;;;;;;3.30;1.50;;;;;;;;;;5038789;28;20029;-61
2022/04/07 10:17:13;;;;;;;3.38;1.50;;;;;;;;;;5038639;28;20087;-60
2022/04/07 10:19:54;;;;;;;3.97;1.75;;;;;;;;;;5038182;28;20053;-60
2022/04/07 10:22:28;;;;;;;4.75;2.15;;;;;;;;;;5038597;28;20040;-60
2022/04/07 10:25:03;;;;;;;2.92;1.30;;;;;;;;;;5038265;28;20475;-60
2022/04/07 10:27:33;;;;;;;5.65;2.05;;;;;;;;;;5038551;28;20034;-61
2022/04/07 10:30:14;;;;;;;4.80;2.13;;;;;;;;;;5038579;28;20025;-61
2022/04/07 10:32:52;;;;;;;3.50;1.73;;;;;;;;;;5038746;28;20060;-62
2022/04/07 10:35:27;;;;;;;4.18;1.80;;;;;;;;;;5037514;28;20033;-62
2022/04/07 10:37:52;;;;;;;3.20;1.50;;;;;;;;;;5036721;28;20489;-61
2022/04/07 10:40:36;;;;;;;4.18;1.50;;;;;;;;;;5032012;28;20029;-60
2022/04/07 10:43:09;;;;;;;4.75;1.60;;;;;;;;;;5025944;28;20108;-60
2022/04/07 10:45:35;;;;;;;3.60;1.63;;;;;;;;;;5025787;28;20026;-60
2022/04/07 10:48:20;;;;;;;4.25;1.40;;;;;;;;;;5025714;28;20033;-60
2022/04/07 10:50:57;;;;;;;2.70;1.60;;;;;;;;;;5015539;28;20037;-60
2022/04/07 10:53:30;;;;;;;8.90;2.00;;;;;;;;;;5014956;28;20037;-60
2022/04/07 10:56:05;;;;;;;4.07;1.30;;;;;;;;;;5015301;28;20040;-59
2022/04/07 10:58:55;;;;;;;3.05;1.10;;;;;;;;;;5015256;28;20428;-60
2022/04/07 11:01:32;;;;;;;4.15;1.40;;;;;;;;;;5015110;28;20033;-60
2022/04/07 11:04:16;;;;;;;2.33;1.45;;;;;;;;;;5015055;28;20113;-60
2022/04/07 11:07:04;;;;;;;5.68;1.20;;;;;;;;;;5014953;28;20057;-62
2022/04/07 11:09:55;;;;;;;1.70;1.10;;;;;;;;;;5014733;28;20030;-62
2022/04/07 11:12:20;;;;;;;;;;;;;;;;;;5015440;28;20494;-61
2022/04/07 11:14:47;;;;;;;5.10;1.30;;;;;;;;;;5014958;28;19913;-62
2022/04/07 11:17:27;;;;;;;4.53;1.48;;;;;;;;;;5014881;28;20029;-60
2022/04/07 11:20:05;;;;;;;;;;;;;;;;;;5027292;28;20112;-62
2022/04/07 11:22:54;;;;;;;5.70;1.60;;;;;;;;;;5034381;28;20373;-62
2022/04/07 11:25:21;;;;;;;2.33;1.20;;;;;;;;;;5031621;28;20041;-61
2022/04/07 11:28:07;;;;;;;4.28;1.00;;;;;;;;;;5034289;28;20130;-62
2022/04/07 11:31:00;;;;;;;3.25;1.10;;;;;;;;;;5034535;28;20482;-60
2022/04/07 11:33:28;;;;;;;2.92;1.10;;;;;;;;;;5031998;28;20185;-62
2022/04/07 11:35:59;;;;;;;8.43;1.30;;;;;;;;;;5034226;28;20029;-60
2022/04/07 11:38:25;;;;;;;2.22;1.00;;;;;;;;;;5034103;28;20033;-65
2022/04/07 11:41:01;;;;;;;4.65;1.00;;;;;;;;;;5034319;28;20494;-62
2022/04/07 11:43:27;;;;;;;2.47;1.05;;;;;;;;;;5034114;28;20033;-63
2022/04/07 11:45:53;;;;;;;2.30;1.10;;;;;;;;;;5033843;28;20480;-61
2022/04/07 11:48:20;;;;;;;1.63;1.00;;;;;;;;;;5034189;28;20025;-61
2022/04/07 11:50:46;;;;;;;2.50;1.00;;;;;;;;;;5033031;28;20536;-62
2022/04/07 11:53:11;;;;;;;3.30;1.40;;;;;;;;;;5034026;28;20025;-62
2022/04/07 11:55:37;;;;;;;4.38;1.20;;;;;;;;;;5034004;28;20070;-61
2022/04/07 11:58:02;;;;;;;9.48;1.60;;;;;;;;;;5033997;28;20395;-61
2022/04/07 12:00:32;;;;;;;3.35;1.10;;;;;;;;;;5033932;28;20052;-62
2022/04/07 12:03:03;;;;;;;5.70;1.42;;;;;;;;;;5033835;28;20455;-60
2022/04/07 12:05:32;;;;;;;4.68;1.30;;;;;;;;;;5033768;28;20543;-61
2022/04/07 12:08:14;;;;;;;4.47;1.65;;;;;;;;;;5033612;28;20356;-61
2022/04/07 12:10:41;;;;;;;2.40;1.20;;;;;;;;;;5024866;28;20032;-62
2022/04/07 12:13:07;;;;;;;2.53;1.50;;;;;;;;;;5024996;28;20487;-61
2022/04/07 12:15:37;;;;;;;2.08;1.20;;;;;;;;;;5033403;28;20035;-60
2022/04/07 12:18:07;;;;;;;2.70;1.50;;;;;;;;;;5033502;28;20072;-60
2022/04/07 12:20:33;;;;;;;;;;;;;;;;;;5033356;28;20136;-60
2022/04/07 12:23:05;;;;;;;2.47;1.20;;;;;;;;;;5033447;28;19948;-62
2022/04/07 12:25:31;;;;;;;3.75;1.27;;;;;;;;;;5033243;28;20033;-62
2022/04/07 12:28:13;;;;;;;2.65;1.30;;;;;;;;;;5033177;28;20047;-61
2022/04/07 12:30:52;;;;;;;1.33;1.00;;;;;;;;;;5024359;28;20352;-62
2022/04/07 12:33:40;;;;;;;2.70;0.95;;;;;;;;;;5027878;28;20133;-63
2022/04/07 12:36:11;;;;;;;3.22;1.42;;;;;;;;;;5026284;28;20026;-61
2022/04/07 12:38:38;;;;;;;2.05;1.10;;;;;;;;;;5024162;28;20377;-61
2022/04/07 12:41:15;;;;;;;1.40;0.93;;;;;;;;;;5021885;28;20026;-61
2022/04/07 12:43:50;;;;;;;2.35;0.88;;;;;;;;;;5023681;28;20028;-61
2022/04/07 12:46:19;;;;;;;2.13;1.10;;;;;;;;;;5023467;28;20033;-63
2022/04/07 12:49:04;;;;;;;1.80;1.10;;;;;;;;;;5021782;28;20021;-63
2022/04/07 12:51:37;;;;;;;2.15;1.40;;;;;;;;;;5022700;28;20418;-62
2022/04/07 12:54:14;;;;;;;3.63;1.38;;;;;;;;;;5022223;28;20100;-63
2022/04/07 12:56:44;;;;;;;3.50;1.60;;;;;;;;;;5023591;28;20382;-64
2022/04/07 12:59:10;;;;;;;2.97;1.40;;;;;;;;;;5023280;28;20029;-64
2022/04/07 13:01:37;;;;;;;3.88;1.60;;;;;;;;;;5021368;28;20046;-64
2022/04/07 13:04:04;;;;;;;3.78;1.48;;;;;;;;;;5020070;28;20480;-64
2022/04/07 13:06:31;;;;;;;2.40;1.30;;;;;;;;;;5021851;28;20117;-64
2022/04/07 13:08:57;;;;;;;3.70;1.80;;;;;;;;;;5022119;28;20410;-63
2022/04/07 13:11:36;;;;;;;1.70;1.30;;;;;;;;;;5017432;28;20036;-63
2022/04/07 13:14:07;;;;;;;2.25;1.55;;;;;;;;;;5015094;28;20033;-63
2022/04/07 13:16:35;;;;;;;3.28;1.45;;;;;;;;;;5023069;28;20021;-63
2022/04/07 13:19:02;;;;;;;2.55;1.48;;;;;;;;;;5024757;28;20045;-63
2022/04/07 13:21:28;;;;;;;2.65;1.30;;;;;;;;;;5025205;28;20032;-63
2022/04/07 13:23:54;;;;;;;2.08;1.40;;;;;;;;;;5020951;28;20021;-64
2022/04/07 13:26:20;;;;;;;2.13;1.30;;;;;;;;;;5022010;28;20040;-63
2022/04/07 13:28:49;;;;;;;2.30;1.52;;;;;;;;;;5020119;28;20441;-64
2022/04/07 13:31:16;;;;;;;2.30;1.45;;;;;;;;;;5016131;28;20113;-64
2022/04/07 13:33:41;;;;;;;1.80;1.42;;;;;;;;;;5014746;28;20100;-64
2022/04/07 13:36:07;;;;;;;4.28;2.03;;;;;;;;;;5012280;28;20157;-64
2022/04/07 13:38:33;;;;;;;4.10;1.50;;;;;;;;;;5012552;28;20409;-64
2022/04/07 13:41:00;;;;;;;2.53;1.60;;;;;;;;;;5012542;28;20051;-64
2022/04/07 13:43:28;;;;;;;3.35;2.03;;;;;;;;;;5012518;28;20030;-64
2022/04/07 13:45:54;;;;;;;2.38;1.33;;;;;;;;;;5012405;28;20030;-64
2022/04/07 13:48:20;;;;;;;2.05;1.40;;;;;;;;;;5012277;28;20030;-64
2022/04/07 13:50:46;;;;;;;1.70;1.10;;;;;;;;;;5012583;28;20030;-64
2022/04/07 13:53:13;;;;;;;2.13;1.35;;;;;;;;;;5012499;28;20091;-64
2022/04/07 13:55:39;;;;;;;2.47;1.60;;;;;;;;;;5012428;28;20034;-64
2022/04/07 13:58:04;;;;;;;3.75;1.40;;;;;;;;;;5012629;28;20026;-64
2022/04/07 14:00:30;;;;;;;3.85;1.20;;;;;;;;;;5012260;28;20026;-65
2022/04/07 14:02:56;;;;;;;1.95;1.35;;;;;;;;;;5012030;28;20030;-63
2022/04/07 14:05:21;;;;;;;1.80;1.40;;;;;;;;;;5020607;28;20313;-63
2022/04/07 14:07:47;;;;;;;3.25;1.50;;;;;;;;;;5031900;28;20072;-63
2022/04/07 14:10:14;;;;;;;2.13;1.25;;;;;;;;;;5032006;28;20463;-62
2022/04/07 14:12:40;;;;;;;2.70;1.33;;;;;;;;;;5031967;28;20167;-63
2022/04/07 14:15:06;;;;;;;3.42;1.50;;;;;;;;;;5035391;28;20475;-63
2022/04/07 14:17:32;;;;;;;1.55;1.20;;;;;;;;;;5035626;28;20068;-63
2022/04/07 14:19:58;;;;;;;2.03;1.13;;;;;;;;;;5035339;28;20490;-63
2022/04/07 14:22:23;;;;;;;1.95;1.00;;;;;;;;;;5035559;28;20032;-63
2022/04/07 14:24:49;;;;;;;1.50;1.08;;;;;;;;;;5035656;28;20029;-65
2022/04/07 14:27:14;;;;;;;1.27;0.90;;;;;;;;;;5035492;28;20419;-63
2022/04/07 14:29:40;;;;;;;1.40;0.88;;;;;;;;;;5035391;28;20022;-62
2022/04/07 14:32:07;;;;;;;2.38;1.00;;;;;;;;;;5028330;28;20033;-62
2022/04/07 14:34:32;;;;;;;2.15;1.00;;;;;;;;;;5023558;28;20521;-62
2022/04/07 14:36:58;;;;;;;1.55;1.00;;;;;;;;;;5024024;28;20025;-63
2022/04/07 14:39:24;;;;;;;1.50;1.10;;;;;;;;;;5024754;28;20022;-62
2022/04/07 14:41:50;;;;;;;2.03;1.27;;;;;;;;;;5022738;28;20057;-63
2022/04/07 14:44:15;;;;;;;1.92;1.35;;;;;;;;;;5026560;28;20394;-62
2022/04/07 14:46:41;;;;;;;3.03;1.63;;;;;;;;;;5023912;28;20076;-63